createdAt,value
2022-11-20T00:02:59.808Z,34.67
2022-11-20T00:06:07.280Z,37.10
2022-11-20T00:09:11.077Z,35.93
2022-11-20T00:12:14.271Z,58.88
2022-11-20T00:15:16.691Z,42.03
2022-11-20T00:18:19.137Z,34.28
2022-11-20T00:21:24.374Z,38.22
2022-11-20T00:24:26.911Z,32.95
2022-11-20T00:27:29.377Z,29.58
2022-11-20T00:30:31.918Z,34.50
2022-11-20T00:33:35.611Z,25.02
2022-11-20T00:36:38.072Z,28.30
2022-11-20T00:39:40.624Z,28.30
2022-11-20T00:42:43.048Z,29.93
2022-11-20T00:45:45.590Z,32.55
2022-11-20T00:48:48.295Z,29.83
2022-11-20T00:51:50.874Z,33.20
2022-11-20T00:54:53.314Z,25.93
2022-11-20T00:57:55.947Z,26.58
2022-11-20T01:01:03.700Z,30.08
2022-11-20T01:04:06.771Z,28.83
2022-11-20T01:07:09.434Z,23.70
2022-11-20T01:10:12.447Z,27.73
2022-11-20T01:13:33.316Z,25.98
2022-11-20T01:16:38.460Z,29.00
2022-11-20T01:19:40.884Z,28.83
2022-11-20T01:22:43.364Z,27.98
2022-11-20T01:25:45.809Z,29.50
2022-11-20T01:28:48.777Z,29.10
2022-11-20T01:31:52.691Z,30.73
2022-11-20T01:34:55.279Z,28.20
2022-11-20T01:37:57.773Z,29.65
2022-11-20T01:41:00.484Z,27.10
2022-11-20T01:44:05.262Z,24.88
2022-11-20T01:47:09.602Z,36.25
2022-11-20T01:50:20.830Z,35.97
2022-11-20T01:53:29.080Z,41.97
2022-11-20T01:56:36.382Z,33.75
2022-11-20T01:59:45.084Z,32.63
2022-11-20T02:02:58.103Z,35.20
2022-11-20T02:06:13.181Z,32.58
2022-11-20T02:09:16.209Z,35.22
2022-11-20T02:12:39.387Z,34.45
2022-11-20T02:15:42.163Z,33.53
2022-11-20T02:18:46.779Z,33.40
2022-11-20T02:21:52.616Z,31.52
2022-11-20T02:24:55.138Z,34.80
2022-11-20T02:27:57.822Z,30.65
2022-11-20T02:31:00.500Z,33.25
2022-11-20T02:34:03.266Z,29.58
2022-11-20T02:37:05.792Z,31.23
2022-11-20T02:40:09.176Z,27.27
2022-11-20T02:43:11.776Z,25.75
2022-11-20T02:46:14.198Z,26.23
2022-11-20T02:49:18.078Z,28.03
2022-11-20T02:52:20.693Z,26.13
2022-11-20T02:55:23.221Z,27.05
2022-11-20T02:58:25.905Z,25.83
2022-11-20T03:01:28.427Z,30.87
2022-11-20T03:04:31.002Z,28.98
2022-11-20T03:07:33.698Z,30.88
2022-11-20T03:10:36.471Z,27.63
2022-11-20T03:13:39.151Z,34.33
2022-11-20T03:16:41.589Z,30.75
2022-11-20T03:19:44.050Z,27.38
2022-11-20T03:22:46.490Z,30.20
2022-11-20T03:25:49.052Z,25.63
2022-11-20T03:28:56.632Z,25.92
2022-11-20T03:31:59.296Z,30.00
2022-11-20T03:35:01.792Z,34.80
2022-11-20T03:38:04.648Z,32.70
2022-11-20T03:41:10.255Z,27.48
2022-11-20T03:44:13.222Z,31.00
2022-11-20T03:47:15.694Z,28.73
2022-11-20T03:50:18.452Z,22.77
2022-11-20T03:53:21.392Z,19.33
2022-11-20T03:56:26.060Z,19.63
2022-11-20T03:59:28.520Z,19.80
2022-11-20T04:02:31.162Z,26.17
2022-11-20T04:05:35.093Z,22.30
2022-11-20T04:08:38.165Z,21.05
2022-11-20T04:11:41.330Z,19.70
2022-11-20T04:14:44.067Z,23.10
2022-11-20T04:17:46.471Z,21.30
2022-11-20T04:20:48.931Z,21.17
2022-11-20T04:23:53.774Z,24.38
2022-11-20T04:26:56.168Z,23.50
2022-11-20T04:29:58.855Z,24.95
2022-11-20T04:33:01.323Z,26.27
2022-11-20T04:36:17.996Z,24.95
2022-11-20T04:39:20.810Z,20.25
2022-11-20T04:42:32.311Z,22.88
2022-11-20T04:45:34.807Z,27.53
2022-11-20T04:48:37.233Z,31.38
2022-11-20T04:51:39.846Z,27.25
2022-11-20T04:54:42.402Z,28.02
2022-11-20T04:57:44.752Z,23.53
2022-11-20T05:00:47.227Z,24.42
2022-11-20T05:03:50.375Z,25.67
2022-11-20T05:06:52.946Z,27.38
2022-11-20T05:09:55.486Z,29.80
2022-11-20T05:12:58.555Z,30.27
2022-11-20T05:16:13.676Z,25.88
2022-11-20T05:19:16.371Z,21.23
2022-11-20T05:22:18.863Z,22.00
2022-11-20T05:25:21.243Z,20.40
2022-11-20T05:28:24.569Z,23.98
2022-11-20T05:31:28.517Z,24.63
2022-11-20T05:34:30.965Z,20.13
2022-11-20T05:37:33.527Z,32.42
2022-11-20T05:40:35.970Z,26.70
2022-11-20T05:43:41.011Z,32.10
2022-11-20T05:46:43.562Z,26.85
2022-11-20T05:49:47.035Z,30.27
2022-11-20T05:52:49.620Z,28.02
2022-11-20T05:56:03.605Z,21.33
2022-11-20T05:59:06.086Z,22.95
2022-11-20T06:02:08.436Z,23.88
2022-11-20T06:05:11.028Z,27.55
2022-11-20T06:08:13.775Z,28.60
2022-11-20T06:11:17.585Z,40.20
2022-11-20T06:14:20.005Z,43.50
2022-11-20T06:17:22.386Z,35.08
2022-11-20T06:20:24.833Z,39.33
2022-11-20T06:23:29.464Z,35.10
2022-11-20T06:26:32.001Z,35.35
2022-11-20T06:29:34.407Z,35.95
2022-11-20T06:32:36.824Z,46.23
2022-11-20T06:35:39.392Z,74.35
2022-11-20T06:38:42.618Z,39.83
2022-11-20T06:41:45.098Z,41.60
2022-11-20T06:44:47.529Z,27.80
2022-11-20T06:47:49.899Z,31.02
2022-11-20T06:50:52.551Z,36.40
2022-11-20T06:53:55.477Z,42.57
2022-11-20T06:56:57.846Z,49.05
2022-11-20T07:00:00.341Z,54.40
2022-11-20T07:03:07.476Z,53.70
2022-11-20T07:06:10.851Z,52.03
2022-11-20T07:09:13.421Z,51.00
2022-11-20T07:12:15.918Z,59.20
2022-11-20T07:15:19.296Z,36.67
2022-11-20T07:18:22.282Z,23.33
2022-11-20T07:21:24.971Z,25.73
2022-11-20T07:24:27.465Z,26.58
2022-11-20T07:27:30.616Z,43.28
2022-11-20T07:30:33.138Z,22.43
2022-11-20T07:33:35.769Z,26.75
2022-11-20T07:36:38.228Z,27.58
2022-11-20T07:39:40.926Z,25.98
2022-11-20T07:42:53.836Z,45.70
2022-11-20T07:45:57.835Z,34.05
2022-11-20T07:49:00.502Z,34.72
2022-11-20T07:52:05.018Z,26.65
2022-11-20T07:55:08.902Z,26.13
2022-11-20T07:58:11.326Z,27.40
2022-11-20T08:01:13.766Z,28.48
2022-11-20T08:04:17.487Z,36.05
2022-11-20T08:07:19.946Z,29.20
2022-11-20T08:10:22.515Z,29.30
2022-11-20T08:13:43.161Z,48.67
2022-11-20T08:16:47.669Z,38.73
2022-11-20T08:19:50.440Z,40.05
2022-11-20T08:22:53.016Z,40.25
2022-11-20T08:25:55.463Z,40.55
2022-11-20T08:28:59.019Z,38.38
2022-11-20T08:32:01.472Z,39.58
2022-11-20T08:35:04.241Z,33.08
2022-11-20T08:38:07.607Z,24.13
2022-11-20T08:41:26.456Z,23.23
2022-11-20T08:44:28.955Z,25.08
2022-11-20T08:47:31.431Z,23.02
2022-11-20T08:50:34.288Z,32.42
2022-11-20T08:53:36.850Z,30.05
2022-11-20T08:56:39.554Z,47.17
2022-11-20T09:00:05.172Z,43.10
2022-11-20T09:03:05.997Z,37.80
2022-11-20T09:06:08.815Z,38.85
2022-11-20T09:09:11.324Z,30.75
2022-11-20T09:12:14.038Z,33.67
2022-11-20T09:15:16.477Z,33.90
2022-11-20T09:18:19.052Z,23.80
2022-11-20T09:21:21.834Z,31.10
2022-11-20T09:24:24.446Z,23.37
2022-11-20T09:27:27.037Z,44.13
2022-11-20T09:30:29.511Z,54.95
2022-11-20T09:33:31.999Z,47.50
2022-11-20T09:36:34.531Z,46.05
2022-11-20T09:39:40.017Z,36.53
2022-11-20T09:42:48.672Z,32.38
2022-11-20T09:46:10.284Z,30.70
2022-11-20T09:49:32.306Z,41.53
2022-11-20T09:52:56.406Z,29.45
2022-11-20T09:56:02.485Z,30.83
2022-11-20T09:59:08.664Z,22.58
2022-11-20T10:02:29.680Z,18.20
2022-11-20T10:05:46.183Z,28.63
2022-11-20T10:09:02.413Z,23.00
2022-11-20T10:12:30.043Z,23.02
2022-11-20T10:16:15.338Z,24.00
2022-11-20T10:19:57.701Z,30.30
2022-11-20T10:23:25.852Z,26.33
2022-11-20T10:26:59.080Z,20.92
2022-11-20T10:30:11.801Z,19.42
2022-11-20T10:33:18.761Z,25.03
2022-11-20T10:36:28.963Z,23.95
2022-11-20T10:39:35.815Z,22.63
2022-11-20T10:42:47.628Z,21.08
2022-11-20T10:46:11.564Z,32.17
2022-11-20T10:49:17.505Z,32.00
2022-11-20T10:52:35.035Z,30.33
2022-11-20T10:55:48.094Z,19.88
2022-11-20T10:59:14.547Z,22.37
2022-11-20T11:02:16.934Z,27.90
2022-11-20T11:05:59.352Z,26.17
2022-11-20T11:09:11.810Z,28.80
2022-11-20T11:12:14.512Z,19.13
2022-11-20T11:15:46.034Z,21.60
2022-11-20T11:18:48.663Z,21.60
2022-11-20T11:21:57.548Z,23.65
2022-11-20T11:25:00.274Z,26.57
2022-11-20T11:28:20.844Z,54.63
2022-11-20T11:31:25.076Z,34.50
2022-11-20T11:34:27.883Z,27.08
2022-11-20T11:37:39.820Z,23.90
2022-11-20T11:40:42.948Z,28.57
2022-11-20T11:44:37.748Z,27.08
2022-11-20T11:47:43.594Z,25.13
2022-11-20T11:50:51.474Z,21.03
2022-11-20T11:53:54.184Z,24.83
2022-11-20T11:57:00.160Z,32.97
2022-11-20T12:00:11.672Z,33.38
2022-11-20T12:03:20.151Z,31.80
2022-11-20T12:06:23.209Z,28.33
2022-11-20T12:09:36.440Z,23.58
2022-11-20T12:12:45.444Z,23.55
2022-11-20T12:15:49.798Z,21.47
2022-11-20T12:18:54.354Z,20.60
2022-11-20T12:22:17.137Z,23.30
2022-11-20T12:25:25.334Z,23.60
2022-11-20T12:28:34.729Z,23.30
2022-11-20T12:32:02.484Z,21.97
2022-11-20T12:35:23.690Z,22.70
2022-11-20T12:38:47.780Z,30.38
2022-11-20T12:42:20.875Z,34.17
2022-11-20T12:45:36.344Z,29.53
2022-11-20T12:49:14.581Z,24.52
2022-11-20T12:52:38.884Z,23.00
2022-11-20T12:56:18.400Z,23.43
2022-11-20T12:59:24.649Z,31.97
2022-11-20T13:02:45.765Z,27.23
2022-11-20T13:06:18.317Z,33.35
2022-11-20T13:09:23.595Z,47.25
2022-11-20T13:12:35.542Z,35.00
2022-11-20T13:15:46.595Z,29.70
2022-11-20T13:18:49.709Z,32.55
2022-11-20T13:21:52.315Z,29.98
2022-11-20T13:24:55.174Z,26.93
2022-11-20T13:28:01.092Z,27.63
2022-11-20T13:31:04.007Z,26.58
2022-11-20T13:34:08.227Z,26.73
2022-11-20T13:37:30.193Z,33.23
2022-11-20T13:40:33.186Z,39.47
2022-11-20T13:43:42.493Z,30.50
2022-11-20T13:46:47.744Z,32.33
2022-11-20T13:49:50.551Z,30.17
2022-11-20T13:53:07.439Z,25.47
2022-11-20T13:56:17.727Z,28.35
2022-11-20T13:59:45.922Z,29.30
2022-11-20T14:03:50.774Z,27.60
2022-11-20T14:06:49.329Z,34.20
2022-11-20T14:09:57.001Z,44.72
2022-11-20T14:13:11.386Z,45.10
2022-11-20T14:16:13.998Z,42.07
2022-11-20T14:19:22.312Z,37.42
2022-11-20T14:22:31.357Z,57.42
2022-11-20T14:25:34.133Z,79.90
2022-11-20T14:28:36.990Z,84.77
2022-11-20T14:31:39.835Z,114.10
2022-11-20T14:34:45.452Z,99.20
2022-11-20T14:37:48.624Z,81.60
2022-11-20T14:40:51.446Z,62.25
2022-11-20T14:44:01.590Z,66.53
2022-11-20T14:47:05.422Z,38.88
2022-11-20T14:50:19.142Z,58.00
2022-11-20T14:53:26.308Z,48.75
2022-11-20T14:56:28.973Z,39.93
2022-11-20T14:59:35.631Z,32.17
2022-11-20T15:02:47.096Z,43.03
2022-11-20T15:05:51.467Z,84.75
2022-11-20T15:08:55.251Z,66.77
2022-11-20T15:12:04.925Z,125.18
2022-11-20T15:15:12.200Z,95.40
2022-11-20T15:18:20.629Z,87.72
2022-11-20T15:21:23.769Z,73.03
2022-11-20T15:24:26.821Z,97.75
2022-11-20T15:27:30.114Z,124.32
2022-11-20T15:30:36.264Z,82.97
2022-11-20T15:33:39.456Z,91.67
2022-11-20T15:36:43.632Z,105.45
2022-11-20T15:39:46.621Z,104.20
2022-11-20T15:43:08.212Z,144.93
2022-11-20T15:46:16.679Z,107.35
2022-11-20T15:49:24.372Z,127.03
2022-11-20T15:52:30.457Z,106.88
2022-11-20T15:55:35.894Z,121.43
2022-11-20T15:58:39.096Z,112.18
2022-11-20T16:01:42.727Z,96.32
2022-11-20T16:04:45.731Z,85.55
2022-11-20T16:07:48.359Z,91.60
2022-11-20T16:10:51.010Z,89.78
2022-11-20T16:14:12.221Z,101.47
2022-11-20T16:17:14.920Z,105.00
2022-11-20T16:20:17.756Z,90.20
2022-11-20T16:23:22.214Z,63.95
2022-11-20T16:26:24.962Z,80.95
2022-11-20T16:29:27.736Z,66.90
2022-11-20T16:32:30.389Z,71.73
2022-11-20T16:35:32.841Z,63.53
2022-11-20T16:38:35.278Z,51.85
2022-11-20T16:41:38.595Z,90.78
2022-11-20T16:44:41.268Z,71.18
2022-11-20T16:47:44.088Z,67.53
2022-11-20T16:50:52.595Z,120.03
2022-11-20T16:53:56.168Z,147.77
2022-11-20T16:56:58.743Z,114.95
2022-11-20T17:00:02.785Z,80.53
2022-11-20T17:03:07.296Z,77.77
2022-11-20T17:06:20.144Z,103.70
2022-11-20T17:09:22.917Z,66.38
2022-11-20T17:12:25.761Z,61.78
2022-11-20T17:15:28.487Z,79.35
2022-11-20T17:18:31.525Z,96.95
2022-11-20T17:21:38.210Z,87.45
2022-11-20T17:24:40.852Z,77.47
2022-11-20T17:27:43.642Z,74.95
2022-11-20T17:30:46.300Z,75.55
2022-11-20T17:33:48.960Z,70.10
2022-11-20T17:36:51.863Z,70.82
2022-11-20T17:39:54.387Z,71.82
2022-11-20T17:42:57.089Z,58.83
2022-11-20T17:45:59.956Z,68.18
2022-11-20T17:49:04.939Z,93.47
2022-11-20T17:52:09.034Z,139.68
2022-11-20T17:55:11.933Z,135.93
2022-11-20T17:58:14.696Z,120.15
2022-11-20T18:01:18.137Z,128.55
2022-11-20T18:04:20.776Z,108.13
2022-11-20T18:07:23.484Z,90.10
2022-11-20T18:10:26.381Z,94.75
2022-11-20T18:13:50.250Z,109.38
2022-11-20T18:16:55.843Z,123.65
2022-11-20T18:20:27.922Z,133.88
2022-11-20T18:23:21.317Z,128.65
2022-11-20T18:26:26.550Z,125.23
2022-11-20T18:29:31.468Z,131.63
2022-11-20T18:32:37.083Z,137.07
2022-11-20T18:35:42.901Z,142.43
2022-11-20T18:38:47.888Z,141.02
2022-11-20T18:42:09.588Z,100.88
2022-11-20T18:45:12.536Z,84.97
2022-11-20T18:48:15.226Z,80.78
2022-11-20T18:51:18.003Z,73.20
2022-11-20T18:54:20.528Z,77.35
2022-11-20T18:57:25.646Z,52.77
2022-11-20T19:00:28.343Z,54.72
2022-11-20T19:03:31.184Z,48.20
2022-11-20T19:06:34.491Z,49.97
2022-11-20T19:09:39.083Z,93.53
2022-11-20T19:12:41.762Z,106.15
2022-11-20T19:15:44.521Z,114.13
2022-11-20T19:18:48.797Z,122.60
2022-11-20T19:21:52.283Z,119.00
2022-11-20T19:24:55.350Z,132.27
2022-11-20T19:27:57.930Z,168.17
2022-11-20T19:31:12.532Z,79.53
2022-11-20T19:34:15.628Z,76.18
2022-11-20T19:37:18.813Z,82.83
2022-11-20T19:40:21.303Z,92.10
2022-11-20T19:43:24.055Z,100.55
2022-11-20T19:46:29.074Z,112.53
2022-11-20T19:49:32.592Z,122.68
2022-11-20T19:52:35.409Z,95.28
2022-11-20T19:55:38.143Z,65.45
2022-11-20T19:58:41.680Z,73.80
2022-11-20T20:01:44.590Z,64.93
2022-11-20T20:04:47.525Z,51.28
2022-11-20T20:07:50.443Z,72.37
2022-11-20T20:10:56.698Z,72.30
2022-11-20T20:14:07.073Z,65.50
2022-11-20T20:17:09.512Z,58.92
2022-11-20T20:20:12.927Z,55.20
2022-11-20T20:23:15.768Z,56.53
2022-11-20T20:26:18.612Z,62.63
2022-11-20T20:29:23.139Z,57.17
2022-11-20T20:32:26.084Z,66.97
2022-11-20T20:35:28.878Z,82.95
2022-11-20T20:38:31.541Z,117.37
2022-11-20T20:41:34.719Z,136.07
2022-11-20T20:44:55.812Z,169.00
2022-11-20T20:47:58.527Z,166.00
2022-11-20T20:51:02.770Z,147.48
2022-11-20T20:54:05.850Z,141.32
2022-11-20T20:57:08.512Z,130.95
2022-11-20T21:00:11.590Z,115.77
2022-11-20T21:03:14.397Z,88.47
2022-11-20T21:06:17.673Z,77.40
2022-11-20T21:09:21.155Z,95.10
2022-11-20T21:12:24.298Z,83.45
2022-11-20T21:15:26.957Z,84.45
2022-11-20T21:18:30.101Z,86.65
2022-11-20T21:21:51.223Z,84.00
2022-11-20T21:24:53.654Z,84.88
2022-11-20T21:27:56.268Z,86.00
2022-11-20T21:31:08.970Z,92.97
2022-11-20T21:34:12.795Z,106.15
2022-11-20T21:37:15.191Z,105.28
2022-11-20T21:40:18.079Z,111.77
2022-11-20T21:43:20.774Z,103.90
2022-11-20T21:46:23.415Z,96.25
2022-11-20T21:49:26.157Z,91.53
2022-11-20T21:52:28.972Z,88.78
2022-11-20T21:55:31.488Z,88.03
2022-11-20T21:58:39.075Z,77.03
2022-11-20T22:01:41.837Z,42.77
2022-11-20T22:04:44.497Z,46.88
2022-11-20T22:07:46.956Z,64.78
2022-11-20T22:11:00.734Z,66.13
2022-11-20T22:14:21.659Z,69.30
2022-11-20T22:17:44.270Z,69.22
2022-11-20T22:20:46.699Z,73.43
2022-11-20T22:23:49.916Z,103.93
2022-11-20T22:26:52.578Z,108.78
2022-11-20T22:29:55.003Z,98.97
2022-11-20T22:32:57.766Z,103.67
2022-11-20T22:36:06.511Z,90.72
2022-11-20T22:39:09.547Z,109.75
2022-11-20T22:42:12.038Z,86.40
2022-11-20T22:45:14.573Z,85.80
2022-11-20T22:48:17.455Z,77.03
2022-11-20T22:51:22.776Z,82.45
2022-11-20T22:54:25.466Z,84.07
2022-11-20T22:57:28.039Z,75.22
2022-11-20T23:00:30.560Z,70.05
2022-11-20T23:03:33.483Z,71.03
2022-11-20T23:06:35.976Z,65.03
2022-11-20T23:09:38.768Z,55.83
2022-11-20T23:12:41.371Z,46.80
2022-11-20T23:15:44.106Z,50.15
2022-11-20T23:18:46.910Z,47.63
2022-11-20T23:21:50.054Z,42.10
2022-11-20T23:24:52.502Z,45.40
2022-11-20T23:27:55.065Z,47.65
2022-11-20T23:30:58.169Z,46.22
2022-11-20T23:34:01.145Z,48.80
2022-11-20T23:37:03.584Z,43.53
2022-11-20T23:40:06.776Z,47.42
2022-11-20T23:43:15.495Z,47.17
2022-11-20T23:46:17.937Z,50.15
2022-11-20T23:49:20.504Z,63.67
2022-11-20T23:52:24.983Z,61.95
2022-11-20T23:55:27.978Z,61.33
2022-11-20T23:58:36.835Z,57.13
